createdAt,value
2023-03-14T00:08:37.367Z,10.70
2023-03-14T00:18:41.212Z,10.93
2023-03-14T00:28:44.250Z,11.01
2023-03-14T00:38:48.733Z,11.00
2023-03-14T00:48:51.289Z,11.08
2023-03-14T00:58:57.440Z,10.94
2023-03-14T01:09:00.822Z,10.87
2023-03-14T01:19:04.732Z,10.95
2023-03-14T01:29:07.283Z,10.87
2023-03-14T01:39:11.052Z,10.87
2023-03-14T01:49:22.996Z,10.81
2023-03-14T01:59:27.897Z,10.63
2023-03-14T02:09:30.964Z,10.64
2023-03-14T02:19:40.456Z,10.54
2023-03-14T02:29:48.017Z,10.68
2023-03-14T02:39:50.924Z,10.67
2023-03-14T02:49:56.841Z,10.47
2023-03-14T03:00:00.179Z,10.42
2023-03-14T03:10:04.502Z,10.34
2023-03-14T03:20:10.040Z,10.24
2023-03-14T03:30:14.264Z,10.13
2023-03-14T03:40:16.785Z,10.23
2023-03-14T03:50:20.691Z,10.06
2023-03-14T04:00:23.321Z,10.13
2023-03-14T04:10:27.060Z,10.05
2023-03-14T04:20:29.551Z,9.85
2023-03-14T04:30:33.388Z,9.70
2023-03-14T04:40:35.878Z,9.64
2023-03-14T04:50:39.646Z,9.78
2023-03-14T05:00:42.041Z,9.76
2023-03-14T05:10:45.845Z,9.82
2023-03-14T05:20:48.356Z,9.74
2023-03-14T05:30:52.113Z,9.69
2023-03-14T05:40:54.557Z,9.76
2023-03-14T05:51:00.245Z,9.71
2023-03-14T06:01:03.644Z,9.73
2023-03-14T06:11:07.859Z,9.64
2023-03-14T06:21:10.531Z,9.68
2023-03-14T06:31:14.492Z,9.78
2023-03-14T06:41:17.002Z,9.85
2023-03-14T06:51:20.967Z,10.03
2023-03-14T07:01:25.567Z,10.14
2023-03-14T07:11:29.497Z,10.14
2023-03-14T07:21:34.020Z,10.15
2023-03-14T07:31:37.826Z,10.41
2023-03-14T07:41:40.253Z,10.55
2023-03-14T07:51:44.952Z,10.68
2023-03-14T08:01:47.459Z,11.01
2023-03-14T08:11:51.282Z,11.02
2023-03-14T08:21:53.750Z,11.16
2023-03-14T08:31:57.603Z,11.28
2023-03-14T08:42:00.140Z,11.57
2023-03-14T08:52:05.289Z,11.72
2023-03-14T09:02:07.753Z,11.59
2023-03-14T09:12:11.538Z,11.45
2023-03-14T09:22:13.945Z,11.49
2023-03-14T09:32:17.780Z,11.39
2023-03-14T09:42:22.641Z,11.50
2023-03-14T09:52:30.443Z,11.48
2023-03-14T10:02:35.430Z,11.43
2023-03-14T10:12:39.908Z,11.66
2023-03-14T10:22:42.483Z,11.79
2023-03-14T10:32:47.929Z,11.84
2023-03-14T10:42:51.616Z,11.85
2023-03-14T10:53:02.527Z,11.72
2023-03-14T11:03:10.890Z,11.66
2023-03-14T11:13:23.653Z,11.38
2023-03-14T11:23:30.075Z,11.51
2023-03-14T11:33:37.994Z,11.04
2023-03-14T11:43:43.732Z,10.91
2023-03-14T11:53:51.891Z,10.82
2023-03-14T12:03:58.700Z,10.75
2023-03-14T12:14:02.937Z,10.63
2023-03-14T12:24:05.555Z,10.14
2023-03-14T12:34:22.823Z,10.25
2023-03-14T12:44:42.614Z,10.49
2023-03-14T12:54:49.094Z,10.78
2023-03-14T13:04:54.792Z,11.76
2023-03-14T13:14:59.659Z,11.85
2023-03-14T13:25:04.391Z,11.21
2023-03-14T13:35:16.139Z,10.43
2023-03-14T13:45:20.642Z,10.19
2023-03-14T13:55:23.317Z,9.61
2023-03-14T14:05:28.958Z,9.59
2023-03-14T14:15:33.456Z,9.53
2023-03-14T14:25:37.834Z,9.38
2023-03-14T14:35:40.411Z,9.27
2023-03-14T14:45:44.605Z,9.27
2023-03-14T14:55:47.111Z,9.34
2023-03-14T15:05:51.091Z,9.48
2023-03-14T15:15:56.742Z,9.41
2023-03-14T15:26:00.626Z,9.60
2023-03-14T15:36:03.137Z,10.32
2023-03-14T15:46:07.294Z,10.33
2023-03-14T15:56:13.375Z,10.30
2023-03-14T16:06:17.578Z,10.12
2023-03-14T16:16:20.287Z,10.11
2023-03-14T16:26:24.204Z,9.84
2023-03-14T16:36:27.029Z,9.69
2023-03-14T16:46:31.130Z,9.32
2023-03-14T16:56:33.641Z,8.75
2023-03-14T17:06:38.463Z,8.27
2023-03-14T17:16:40.997Z,8.04
2023-03-14T17:26:44.816Z,7.57
2023-03-14T17:36:47.399Z,7.42
2023-03-14T17:46:51.286Z,7.13
2023-03-14T17:56:53.813Z,8.10
2023-03-14T18:06:57.696Z,7.06
2023-03-14T18:17:00.275Z,7.08
2023-03-14T18:27:04.143Z,6.77
2023-03-14T18:37:07.300Z,6.62
2023-03-14T18:47:11.991Z,6.49
2023-03-14T18:57:14.514Z,6.52
2023-03-14T19:07:18.273Z,6.33
2023-03-14T19:17:20.776Z,6.44
2023-03-14T19:27:24.923Z,6.44
2023-03-14T19:37:27.349Z,6.39
2023-03-14T19:47:31.829Z,6.52
2023-03-14T19:57:34.384Z,6.45
2023-03-14T20:07:38.261Z,6.52
2023-03-14T20:17:40.777Z,6.59
2023-03-14T20:27:44.608Z,6.63
2023-03-14T20:37:47.056Z,6.54
2023-03-14T20:47:50.868Z,6.61
2023-03-14T20:57:53.403Z,6.41
2023-03-14T21:07:57.190Z,6.28
2023-03-14T21:18:05.782Z,6.22
2023-03-14T21:28:09.746Z,6.01
2023-03-14T21:38:12.513Z,5.79
2023-03-14T21:48:16.319Z,5.73
2023-03-14T21:58:19.795Z,5.71
2023-03-14T22:08:23.560Z,5.51
2023-03-14T22:18:26.264Z,5.51
2023-03-14T22:28:30.066Z,5.33
2023-03-14T22:38:32.498Z,5.22
2023-03-14T22:48:36.333Z,5.32
2023-03-14T22:58:38.838Z,4.86
2023-03-14T23:08:42.668Z,4.19
2023-03-14T23:18:45.114Z,4.11
2023-03-14T23:28:49.561Z,3.98
2023-03-14T23:38:52.100Z,3.86
2023-03-14T23:48:58.216Z,4.02
2023-03-14T23:59:00.681Z,3.79
